createdAt,value
2022-08-22T00:01:35.881Z,14.86
2022-08-22T00:03:08.735Z,15.10
2022-08-22T00:04:35.230Z,14.65
2022-08-22T00:07:46.285Z,14.47
2022-08-22T00:10:44.537Z,14.29
2022-08-22T00:13:41.773Z,14.30
2022-08-22T00:16:55.488Z,14.32
2022-08-22T00:20:00.057Z,14.31
2022-08-22T00:22:58.161Z,14.28
2022-08-22T00:26:02.922Z,14.41
2022-08-22T00:29:02.238Z,14.48
2022-08-22T00:31:54.569Z,14.44
2022-08-22T00:34:50.877Z,14.41
2022-08-22T00:37:41.653Z,14.35
2022-08-22T00:40:45.162Z,14.26
2022-08-22T00:43:58.410Z,14.13
2022-08-22T00:46:54.085Z,14.13
2022-08-22T00:50:20.991Z,14.15
2022-08-22T00:53:18.014Z,14.12
2022-08-22T00:56:37.452Z,14.06
2022-08-22T01:00:09.395Z,14.02
2022-08-22T01:03:27.571Z,14.01
2022-08-22T01:07:06.702Z,13.96
2022-08-22T01:10:14.562Z,13.95
2022-08-22T01:13:20.601Z,13.84
2022-08-22T01:16:42.482Z,13.84
2022-08-22T01:19:33.356Z,13.65
2022-08-22T01:23:03.514Z,13.70
2022-08-22T01:26:07.433Z,13.82
2022-08-22T01:29:00.457Z,13.85
2022-08-22T01:32:31.914Z,13.76
2022-08-22T01:35:28.832Z,13.55
2022-08-22T01:38:35.191Z,13.63
2022-08-22T01:41:26.041Z,13.53
2022-08-22T01:44:44.097Z,13.55
2022-08-22T01:47:54.195Z,13.50
2022-08-22T01:50:54.802Z,13.43
2022-08-22T01:53:53.366Z,13.36
2022-08-22T01:56:45.897Z,13.35
2022-08-22T01:59:52.710Z,13.24
2022-08-22T02:03:00.140Z,13.29
2022-08-22T02:05:59.832Z,13.20
2022-08-22T02:09:01.957Z,13.21
2022-08-22T02:11:55.150Z,13.20
2022-08-22T02:14:50.574Z,13.17
2022-08-22T02:17:52.347Z,13.03
2022-08-22T02:20:56.533Z,13.09
2022-08-22T02:23:56.029Z,13.17
2022-08-22T02:26:52.772Z,13.17
2022-08-22T02:29:53.651Z,13.17
2022-08-22T02:32:45.994Z,13.10
2022-08-22T02:35:39.816Z,13.13
2022-08-22T02:38:24.754Z,13.14
2022-08-22T02:41:21.323Z,13.13
2022-08-22T02:44:31.474Z,13.11
2022-08-22T02:47:36.169Z,13.02
2022-08-22T02:50:46.078Z,13.04
2022-08-22T02:53:30.961Z,12.96
2022-08-22T02:56:26.962Z,12.91
2022-08-22T02:59:27.273Z,12.75
2022-08-22T03:02:34.953Z,12.75
2022-08-22T03:05:38.409Z,12.74
2022-08-22T03:08:31.146Z,12.78
2022-08-22T03:11:27.863Z,12.74
2022-08-22T03:14:43.375Z,12.68
2022-08-22T03:17:39.353Z,12.68
2022-08-22T03:20:50.827Z,12.66
2022-08-22T03:24:01.633Z,12.63
2022-08-22T03:26:46.827Z,12.55
2022-08-22T03:30:20.068Z,12.44
2022-08-22T03:33:34.468Z,12.40
2022-08-22T03:36:28.440Z,12.37
2022-08-22T03:39:42.870Z,12.29
2022-08-22T03:42:59.694Z,12.31
2022-08-22T03:45:59.975Z,12.26
2022-08-22T03:48:51.421Z,12.24
2022-08-22T03:51:51.750Z,12.22
2022-08-22T03:54:52.244Z,12.23
2022-08-22T03:57:37.501Z,12.21
2022-08-22T04:00:34.217Z,12.19
2022-08-22T04:04:01.301Z,12.18
2022-08-22T04:06:49.434Z,12.16
2022-08-22T04:10:02.370Z,12.13
2022-08-22T04:12:53.382Z,12.12
2022-08-22T04:16:07.241Z,12.12
2022-08-22T04:19:08.131Z,12.06
2022-08-22T04:21:53.367Z,12.06
2022-08-22T04:24:44.510Z,12.06
2022-08-22T04:27:49.693Z,11.97
2022-08-22T04:30:42.829Z,11.99
2022-08-22T04:33:28.425Z,11.94
2022-08-22T04:36:20.763Z,11.94
2022-08-22T04:39:18.397Z,11.94
2022-08-22T04:42:31.862Z,11.95
2022-08-22T04:45:32.021Z,11.95
2022-08-22T04:48:37.593Z,11.95
2022-08-22T04:51:50.670Z,11.94
2022-08-22T04:54:56.800Z,11.90
2022-08-22T04:58:09.669Z,11.88
2022-08-22T05:01:09.695Z,11.86
2022-08-22T05:04:06.087Z,11.89
2022-08-22T05:06:56.793Z,11.91
2022-08-22T05:09:56.356Z,11.80
2022-08-22T05:12:45.973Z,11.86
2022-08-22T05:15:35.165Z,11.79
2022-08-22T05:18:29.636Z,11.84
2022-08-22T05:21:18.362Z,11.86
2022-08-22T05:24:16.825Z,11.84
2022-08-22T05:27:11.333Z,11.95
2022-08-22T05:30:24.744Z,12.04
2022-08-22T05:33:34.833Z,12.06
2022-08-22T05:36:25.513Z,12.00
2022-08-22T05:39:18.765Z,11.93
2022-08-22T05:42:04.622Z,11.95
2022-08-22T05:44:50.151Z,11.98
2022-08-22T05:48:04.189Z,11.99
2022-08-22T05:50:58.460Z,11.99
2022-08-22T05:53:48.336Z,11.91
2022-08-22T05:56:38.631Z,11.96
2022-08-22T05:59:29.414Z,12.05
2022-08-22T06:02:39.002Z,12.11
2022-08-22T06:05:30.934Z,12.24
2022-08-22T06:08:48.569Z,12.33
2022-08-22T06:11:44.848Z,12.40
2022-08-22T06:14:43.356Z,12.42
2022-08-22T06:17:35.254Z,12.55
2022-08-22T06:20:32.928Z,12.59
2022-08-22T06:23:26.753Z,12.70
2022-08-22T06:26:20.877Z,12.80
2022-08-22T06:29:08.753Z,12.87
2022-08-22T06:31:54.001Z,12.85
2022-08-22T06:34:42.935Z,12.95
2022-08-22T06:37:36.685Z,13.02
2022-08-22T06:40:23.045Z,13.10
2022-08-22T06:43:11.211Z,13.11
2022-08-22T06:45:56.806Z,13.18
2022-08-22T06:48:44.003Z,13.18
2022-08-22T06:51:30.269Z,13.27
2022-08-22T06:54:21.605Z,13.16
2022-08-22T06:57:12.184Z,13.40
2022-08-22T07:00:00.144Z,14.47
2022-08-22T07:02:57.074Z,15.16
2022-08-22T07:05:42.903Z,15.24
2022-08-22T07:08:36.001Z,14.68
2022-08-22T07:11:34.902Z,14.32
2022-08-22T07:14:28.165Z,14.64
2022-08-22T07:17:22.002Z,14.70
2022-08-22T07:20:23.945Z,14.71
2022-08-22T07:23:12.900Z,14.75
2022-08-22T07:26:15.145Z,14.82
2022-08-22T07:29:11.590Z,14.90
2022-08-22T07:32:03.180Z,14.99
2022-08-22T07:35:02.989Z,15.06
2022-08-22T07:38:03.352Z,15.13
2022-08-22T07:41:07.461Z,15.14
2022-08-22T07:44:00.971Z,15.22
2022-08-22T07:47:00.769Z,15.30
2022-08-22T07:50:08.369Z,15.42
2022-08-22T07:53:00.979Z,15.45
2022-08-22T07:55:49.283Z,15.43
2022-08-22T07:58:39.607Z,15.60
2022-08-22T08:01:26.712Z,15.62
2022-08-22T08:04:17.246Z,15.80
2022-08-22T08:07:05.850Z,15.96
2022-08-22T08:09:56.675Z,16.06
2022-08-22T08:12:52.770Z,16.20
2022-08-22T08:15:49.396Z,16.40
2022-08-22T08:18:37.151Z,16.56
2022-08-22T08:21:27.649Z,16.66
2022-08-22T08:24:19.273Z,16.74
2022-08-22T08:27:30.208Z,16.90
2022-08-22T08:30:46.818Z,17.00
2022-08-22T08:33:32.861Z,17.08
2022-08-22T08:36:53.212Z,17.18
2022-08-22T08:39:44.922Z,17.38
2022-08-22T08:43:11.038Z,17.53
2022-08-22T08:46:27.106Z,17.57
2022-08-22T08:49:23.959Z,17.74
2022-08-22T08:52:15.521Z,17.91
2022-08-22T08:55:16.020Z,18.18
2022-08-22T08:58:31.984Z,18.46
2022-08-22T09:01:28.852Z,18.77
2022-08-22T09:04:30.450Z,18.94
2022-08-22T09:07:49.878Z,19.16
2022-08-22T09:11:09.574Z,19.35
2022-08-22T09:14:17.050Z,19.42
2022-08-22T09:17:31.666Z,19.46
2022-08-22T09:20:31.840Z,19.38
2022-08-22T09:24:06.360Z,19.60
2022-08-22T09:26:57.489Z,19.98
2022-08-22T09:29:57.121Z,20.09
2022-08-22T09:33:02.648Z,20.24
2022-08-22T09:35:47.624Z,20.33
2022-08-22T09:38:52.952Z,20.45
2022-08-22T09:41:40.841Z,20.56
2022-08-22T09:44:51.146Z,20.65
2022-08-22T09:47:47.869Z,20.78
2022-08-22T09:51:04.690Z,20.89
2022-08-22T09:54:02.681Z,21.01
2022-08-22T09:57:15.008Z,21.10
2022-08-22T10:00:22.352Z,21.19
2022-08-22T10:03:25.289Z,21.27
2022-08-22T10:06:23.313Z,21.30
2022-08-22T10:09:33.450Z,21.29
2022-08-22T10:12:27.297Z,21.40
2022-08-22T10:15:12.454Z,21.63
2022-08-22T10:18:00.438Z,21.92
2022-08-22T10:21:13.325Z,22.06
2022-08-22T10:24:29.498Z,22.17
2022-08-22T10:27:20.431Z,22.06
2022-08-22T10:30:20.430Z,22.10
2022-08-22T10:33:41.815Z,22.04
2022-08-22T10:36:36.092Z,22.18
2022-08-22T10:39:26.792Z,22.36
2022-08-22T10:42:18.558Z,22.43
2022-08-22T10:45:24.082Z,22.53
2022-08-22T10:48:45.248Z,22.64
2022-08-22T10:51:52.135Z,22.63
2022-08-22T10:54:51.316Z,22.67
2022-08-22T10:57:44.076Z,22.67
2022-08-22T11:00:54.411Z,22.81
2022-08-22T11:03:57.416Z,22.95
2022-08-22T11:07:06.016Z,23.01
2022-08-22T11:10:03.806Z,22.98
2022-08-22T11:13:32.314Z,23.28
2022-08-22T11:16:41.604Z,23.24
2022-08-22T11:19:31.792Z,23.28
2022-08-22T11:22:33.605Z,23.43
2022-08-22T11:25:43.466Z,23.34
2022-08-22T11:28:51.033Z,23.34
2022-08-22T11:32:13.551Z,23.39
2022-08-22T11:35:09.008Z,23.11
2022-08-22T11:38:05.491Z,23.04
2022-08-22T11:41:26.490Z,23.38
2022-08-22T11:44:32.128Z,23.40
2022-08-22T11:47:29.111Z,22.85
2022-08-22T11:50:35.246Z,22.68
2022-08-22T11:53:43.228Z,22.69
2022-08-22T11:56:54.870Z,22.58
2022-08-22T11:59:43.016Z,22.77
2022-08-22T12:02:53.236Z,22.88
2022-08-22T12:06:13.652Z,22.98
2022-08-22T12:09:21.366Z,22.80
2022-08-22T12:12:10.700Z,22.79
2022-08-22T12:15:05.351Z,22.64
2022-08-22T12:18:21.280Z,22.64
2022-08-22T12:21:06.917Z,22.61
2022-08-22T12:24:19.154Z,22.56
2022-08-22T12:27:36.536Z,22.57
2022-08-22T12:30:42.906Z,22.64
2022-08-22T12:33:42.385Z,22.37
2022-08-22T12:36:42.269Z,22.41
2022-08-22T12:39:42.542Z,22.51
2022-08-22T12:43:10.159Z,22.98
2022-08-22T12:46:04.358Z,23.21
2022-08-22T12:48:59.551Z,23.61
2022-08-22T12:52:26.579Z,24.35
2022-08-22T12:55:24.838Z,25.20
2022-08-22T12:58:31.701Z,25.12
2022-08-22T13:01:19.481Z,24.98
2022-08-22T13:04:31.054Z,24.87
2022-08-22T13:07:22.709Z,24.85
2022-08-22T13:10:26.150Z,25.31
2022-08-22T13:13:16.590Z,25.71
2022-08-22T13:16:16.214Z,25.13
2022-08-22T13:19:08.962Z,24.70
2022-08-22T13:22:13.361Z,24.68
2022-08-22T13:25:14.757Z,24.93
2022-08-22T13:28:12.606Z,24.89
2022-08-22T13:30:59.897Z,24.64
2022-08-22T13:33:48.040Z,24.96
2022-08-22T13:36:42.091Z,25.14
2022-08-22T13:39:41.481Z,24.74
2022-08-22T13:42:31.324Z,24.55
2022-08-22T13:45:27.840Z,24.23
2022-08-22T13:48:15.556Z,24.17
2022-08-22T13:51:21.825Z,24.03
2022-08-22T13:54:43.561Z,24.07
2022-08-22T13:57:38.822Z,23.97
2022-08-22T14:01:35.298Z,23.70
2022-08-22T14:04:32.090Z,23.58
2022-08-22T14:07:31.044Z,23.41
2022-08-22T14:10:28.641Z,23.44
2022-08-22T14:13:37.564Z,23.44
2022-08-22T14:16:27.131Z,23.33
2022-08-22T14:19:22.825Z,23.21
2022-08-22T14:22:19.549Z,23.09
2022-08-22T14:25:16.843Z,22.99
2022-08-22T14:28:09.339Z,23.04
2022-08-22T14:31:13.208Z,23.12
2022-08-22T14:34:07.445Z,22.97
2022-08-22T14:37:04.426Z,23.12
2022-08-22T14:39:56.816Z,23.17
2022-08-22T14:42:48.602Z,23.26
2022-08-22T14:45:40.564Z,23.39
2022-08-22T14:48:50.385Z,23.39
2022-08-22T14:51:36.341Z,23.27
2022-08-22T14:54:28.972Z,23.37
2022-08-22T14:57:18.507Z,23.33
2022-08-22T15:00:12.004Z,23.30
2022-08-22T15:03:10.833Z,23.55
2022-08-22T15:06:10.165Z,23.63
2022-08-22T15:08:57.243Z,23.74
2022-08-22T15:11:47.482Z,23.80
2022-08-22T15:14:37.739Z,23.63
2022-08-22T15:17:44.854Z,23.64
2022-08-22T15:20:49.089Z,23.70
2022-08-22T15:23:44.839Z,23.68
2022-08-22T15:26:39.461Z,23.75
2022-08-22T15:29:28.979Z,23.61
2022-08-22T15:32:20.910Z,23.54
2022-08-22T15:35:27.694Z,23.43
2022-08-22T15:38:36.348Z,23.48
2022-08-22T15:41:40.844Z,23.44
2022-08-22T15:44:47.414Z,23.49
2022-08-22T15:47:41.454Z,23.44
2022-08-22T15:50:29.698Z,23.46
2022-08-22T15:53:21.695Z,23.46
2022-08-22T15:56:23.679Z,23.44
2022-08-22T15:59:20.493Z,23.19
2022-08-22T16:02:35.277Z,23.22
2022-08-22T16:05:26.677Z,23.20
2022-08-22T16:08:22.653Z,23.22
2022-08-22T16:11:19.666Z,23.33
2022-08-22T16:14:24.396Z,23.34
2022-08-22T16:17:24.795Z,23.46
2022-08-22T16:20:17.848Z,23.56
2022-08-22T16:23:08.790Z,23.65
2022-08-22T16:25:54.237Z,23.54
2022-08-22T16:29:00.609Z,23.60
2022-08-22T16:31:48.742Z,23.70
2022-08-22T16:34:36.805Z,23.47
2022-08-22T16:37:24.930Z,23.51
2022-08-22T16:40:17.861Z,23.52
2022-08-22T16:43:17.914Z,23.48
2022-08-22T16:46:34.635Z,23.47
2022-08-22T16:49:33.344Z,23.42
2022-08-22T16:52:24.653Z,23.42
2022-08-22T16:55:28.501Z,23.61
2022-08-22T16:58:58.926Z,23.38
2022-08-22T17:02:24.924Z,23.28
2022-08-22T17:05:29.825Z,23.40
2022-08-22T17:08:24.477Z,23.39
2022-08-22T17:11:50.494Z,23.43
2022-08-22T17:15:23.129Z,23.44
2022-08-22T17:18:25.495Z,23.52
2022-08-22T17:21:32.470Z,23.44
2022-08-22T17:24:35.582Z,23.30
2022-08-22T17:27:39.041Z,23.34
2022-08-22T17:30:36.820Z,23.30
2022-08-22T17:33:33.246Z,23.07
2022-08-22T17:36:49.926Z,22.90
2022-08-22T17:39:53.018Z,22.70
2022-08-22T17:42:51.281Z,22.70
2022-08-22T17:45:55.223Z,22.61
2022-08-22T17:48:55.409Z,22.58
2022-08-22T17:51:55.450Z,22.44
2022-08-22T17:54:48.847Z,22.36
2022-08-22T17:57:39.169Z,22.27
2022-08-22T18:00:49.047Z,22.38
2022-08-22T18:03:38.733Z,22.23
2022-08-22T18:06:33.667Z,21.84
2022-08-22T18:09:29.855Z,21.67
2022-08-22T18:12:38.045Z,21.51
2022-08-22T18:15:30.213Z,21.27
2022-08-22T18:18:31.261Z,21.26
2022-08-22T18:21:32.444Z,21.28
2022-08-22T18:24:24.688Z,21.21
2022-08-22T18:27:34.763Z,21.20
2022-08-22T18:30:29.338Z,21.19
2022-08-22T18:33:42.572Z,21.13
2022-08-22T18:36:39.679Z,21.00
2022-08-22T18:39:32.144Z,20.92
2022-08-22T18:42:33.437Z,20.86
2022-08-22T18:45:44.131Z,20.82
2022-08-22T18:49:05.478Z,20.77
2022-08-22T18:52:13.774Z,20.67
2022-08-22T18:55:01.725Z,20.56
2022-08-22T18:58:08.637Z,20.48
2022-08-22T19:01:17.566Z,20.58
2022-08-22T19:04:35.064Z,20.47
2022-08-22T19:08:01.381Z,20.36
2022-08-22T19:11:12.757Z,20.30
2022-08-22T19:14:47.683Z,20.23
2022-08-22T19:18:07.343Z,20.21
2022-08-22T19:21:38.918Z,20.19
2022-08-22T19:24:26.829Z,20.17
2022-08-22T19:27:24.741Z,20.21
2022-08-22T19:30:33.964Z,20.13
2022-08-22T19:33:34.307Z,20.07
2022-08-22T19:36:37.499Z,19.97
2022-08-22T19:39:40.709Z,19.91
2022-08-22T19:42:27.170Z,19.95
2022-08-22T19:45:25.652Z,19.86
2022-08-22T19:48:14.129Z,19.80
2022-08-22T19:51:20.312Z,19.80
2022-08-22T19:54:17.088Z,19.75
2022-08-22T19:57:13.819Z,19.74
2022-08-22T20:00:13.811Z,19.76
2022-08-22T20:03:07.862Z,19.67
2022-08-22T20:06:33.596Z,19.67
2022-08-22T20:09:29.525Z,19.65
2022-08-22T20:12:19.913Z,19.68
2022-08-22T20:15:23.438Z,19.65
2022-08-22T20:21:39.348Z,19.63
2022-08-22T20:24:39.791Z,19.65
2022-08-22T20:27:28.532Z,19.62
2022-08-22T20:30:27.356Z,19.61
2022-08-22T20:33:18.475Z,19.56
2022-08-22T20:36:27.387Z,19.60
2022-08-22T20:39:26.642Z,19.49
2022-08-22T20:42:15.065Z,19.54
2022-08-22T20:45:12.118Z,19.50
2022-08-22T20:47:57.970Z,19.49
2022-08-22T20:50:43.338Z,19.46
2022-08-22T20:53:28.626Z,19.38
2022-08-22T20:56:14.288Z,19.41
2022-08-22T20:59:01.272Z,19.38
2022-08-22T21:01:47.320Z,19.35
2022-08-22T21:04:50.864Z,19.34
2022-08-22T21:07:41.553Z,19.28
2022-08-22T21:10:48.815Z,19.23
2022-08-22T21:13:36.713Z,19.20
2022-08-22T21:16:31.943Z,19.17
2022-08-22T21:19:25.988Z,19.14
2022-08-22T21:22:17.724Z,19.20
2022-08-22T21:25:02.941Z,19.21
2022-08-22T21:27:48.273Z,19.18
2022-08-22T21:30:35.696Z,19.16
2022-08-22T21:33:24.555Z,19.19
2022-08-22T21:36:12.352Z,19.10
2022-08-22T21:39:00.858Z,19.20
2022-08-22T21:42:09.312Z,19.19
2022-08-22T21:45:00.530Z,19.22
2022-08-22T21:47:45.998Z,19.15
2022-08-22T21:50:38.053Z,19.12
2022-08-22T21:53:28.177Z,19.14
2022-08-22T21:56:16.640Z,19.14
2022-08-22T21:59:24.981Z,19.12
2022-08-22T22:02:36.562Z,19.16
2022-08-22T22:05:22.212Z,19.11
2022-08-22T22:08:10.964Z,19.09
2022-08-22T22:10:58.851Z,19.06
2022-08-22T22:13:45.028Z,19.04
2022-08-22T22:16:31.418Z,19.00
2022-08-22T22:19:16.662Z,18.98
2022-08-22T22:22:02.416Z,18.93
2022-08-22T22:24:47.634Z,18.97
2022-08-22T22:27:33.013Z,18.95
2022-08-22T22:30:20.509Z,18.89
2022-08-22T22:33:06.367Z,18.92
2022-08-22T22:35:53.797Z,18.92
2022-08-22T22:38:40.728Z,18.92
2022-08-22T22:41:26.251Z,18.93
2022-08-22T22:44:11.759Z,18.92
2022-08-22T22:47:02.265Z,18.96
2022-08-22T22:49:47.609Z,18.85
2022-08-22T22:52:32.587Z,18.97
2022-08-22T22:55:25.002Z,18.98
2022-08-22T22:58:10.814Z,18.99
2022-08-22T23:00:56.613Z,18.95
2022-08-22T23:03:43.181Z,18.93
2022-08-22T23:06:29.920Z,18.93
2022-08-22T23:09:14.770Z,18.98
2022-08-22T23:12:00.483Z,18.97
2022-08-22T23:14:45.931Z,18.90
2022-08-22T23:17:31.375Z,18.91
2022-08-22T23:20:16.544Z,18.98
2022-08-22T23:23:01.676Z,19.00
2022-08-22T23:25:46.925Z,19.02
2022-08-22T23:28:32.108Z,19.02
2022-08-22T23:31:29.810Z,18.95
2022-08-22T23:34:21.611Z,19.04
2022-08-22T23:37:07.953Z,18.98
2022-08-22T23:39:53.026Z,18.87
2022-08-22T23:42:38.762Z,18.98
2022-08-22T23:45:23.663Z,19.00
2022-08-22T23:48:08.877Z,18.98
2022-08-22T23:50:54.071Z,18.96
2022-08-22T23:53:40.363Z,18.97
2022-08-22T23:56:28.997Z,19.03
2022-08-22T23:59:17.442Z,19.03
